BUY weather

Bunbury Airport
Western Australia, Australia

Public forecast

Using degrees Celsius for public forecast. Weather courtesy of forecast.io.

METAR (pilot weather report)

Closest report is Perth Jandakot Airport, 77.6 nm (143.7 km) N. Retrieved 2019/03/19 19:00 UTC (17 minutes ago):

YPJT 191900Z AUTO 00000KT 9000 // NCD 20/20 Q1010 RF00.0/000.0

TAF (pilot weather forecast)

Closest forecast is Perth Jandakot Airport, 77.6 nm (143.7 km) N. Retrieved 2019/03/19 18:00 UTC (1 hour ago):

TAF YPJT 191632Z 1918/2012 VRB03KT 9999 BKN005 FM200000 14005KT CAVOK FM200500 23010KT CAVOK